sensor_id;sensor_type;location;lat;lon;timestamp;P1;durP1;ratioP1;P2;durP2;ratioP2
7919;SDS011;18778;47.610;9.776;2023-09-07T00:00:48;8.47;;;7.67;;
7919;SDS011;18778;47.610;9.776;2023-09-07T00:03:14;10.47;;;7.73;;
7919;SDS011;18778;47.610;9.776;2023-09-07T00:05:40;8.90;;;8.10;;
7919;SDS011;18778;47.610;9.776;2023-09-07T00:08:06;7.87;;;7.17;;
7919;SDS011;18778;47.610;9.776;2023-09-07T00:10:32;8.77;;;7.80;;
7919;SDS011;18778;47.610;9.776;2023-09-07T00:13:01;8.27;;;7.47;;
7919;SDS011;18778;47.610;9.776;2023-09-07T00:15:28;7.63;;;6.93;;
7919;SDS011;18778;47.610;9.776;2023-09-07T00:17:55;8.70;;;7.90;;
7919;SDS011;18778;47.610;9.776;2023-09-07T00:20:21;9.20;;;7.40;;
7919;SDS011;18778;47.610;9.776;2023-09-07T00:22:48;12.17;;;7.50;;
7919;SDS011;18778;47.610;9.776;2023-09-07T00:25:14;8.80;;;8.00;;
7919;SDS011;18778;47.610;9.776;2023-09-07T00:27:39;9.13;;;7.50;;
7919;SDS011;18778;47.610;9.776;2023-09-07T00:30:06;8.27;;;7.33;;
7919;SDS011;18778;47.610;9.776;2023-09-07T00:32:35;8.30;;;7.50;;
7919;SDS011;18778;47.610;9.776;2023-09-07T00:35:02;8.43;;;7.63;;
7919;SDS011;18778;47.610;9.776;2023-09-07T00:37:28;11.33;;;8.07;;
7919;SDS011;18778;47.610;9.776;2023-09-07T00:39:54;9.40;;;7.40;;
7919;SDS011;18778;47.610;9.776;2023-09-07T00:42:19;8.27;;;7.47;;
7919;SDS011;18778;47.610;9.776;2023-09-07T00:44:45;10.03;;;7.70;;
7919;SDS011;18778;47.610;9.776;2023-09-07T00:47:11;8.80;;;7.87;;
7919;SDS011;18778;47.610;9.776;2023-09-07T00:49:38;8.90;;;8.00;;
7919;SDS011;18778;47.610;9.776;2023-09-07T00:52:05;8.60;;;7.70;;
7919;SDS011;18778;47.610;9.776;2023-09-07T00:54:31;9.33;;;8.43;;
7919;SDS011;18778;47.610;9.776;2023-09-07T00:56:56;8.40;;;7.60;;
7919;SDS011;18778;47.610;9.776;2023-09-07T00:59:22;8.67;;;7.77;;
7919;SDS011;18778;47.610;9.776;2023-09-07T01:01:48;8.53;;;7.73;;
7919;SDS011;18778;47.610;9.776;2023-09-07T01:04:14;10.57;;;8.10;;
7919;SDS011;18778;47.610;9.776;2023-09-07T01:06:42;8.67;;;7.87;;
7919;SDS011;18778;47.610;9.776;2023-09-07T01:09:11;10.20;;;7.93;;
7919;SDS011;18778;47.610;9.776;2023-09-07T01:11:42;9.07;;;8.17;;
7919;SDS011;18778;47.610;9.776;2023-09-07T01:14:08;9.83;;;8.07;;
7919;SDS011;18778;47.610;9.776;2023-09-07T01:16:35;8.90;;;8.00;;
7919;SDS011;18778;47.610;9.776;2023-09-07T01:19:03;8.83;;;7.93;;
7919;SDS011;18778;47.610;9.776;2023-09-07T01:21:34;9.33;;;8.43;;
7919;SDS011;18778;47.610;9.776;2023-09-07T01:24:01;9.17;;;8.27;;
7919;SDS011;18778;47.610;9.776;2023-09-07T01:26:29;9.30;;;8.40;;
7919;SDS011;18778;47.610;9.776;2023-09-07T01:28:55;9.50;;;8.20;;
7919;SDS011;18778;47.610;9.776;2023-09-07T01:31:21;10.00;;;9.00;;
7919;SDS011;18778;47.610;9.776;2023-09-07T01:33:47;9.63;;;8.27;;
7919;SDS011;18778;47.610;9.776;2023-09-07T01:36:13;9.23;;;8.33;;
7919;SDS011;18778;47.610;9.776;2023-09-07T01:38:38;9.23;;;8.33;;
7919;SDS011;18778;47.610;9.776;2023-09-07T01:41:04;10.17;;;8.37;;
7919;SDS011;18778;47.610;9.776;2023-09-07T01:43:30;9.37;;;8.40;;
7919;SDS011;18778;47.610;9.776;2023-09-07T01:45:55;9.00;;;8.10;;
7919;SDS011;18778;47.610;9.776;2023-09-07T01:48:21;13.57;;;9.23;;
7919;SDS011;18778;47.610;9.776;2023-09-07T01:50:47;9.73;;;8.57;;
7919;SDS011;18778;47.610;9.776;2023-09-07T01:53:13;9.93;;;8.93;;
7919;SDS011;18778;47.610;9.776;2023-09-07T01:55:38;10.60;;;8.23;;
7919;SDS011;18778;47.610;9.776;2023-09-07T01:58:04;9.97;;;8.70;;
7919;SDS011;18778;47.610;9.776;2023-09-07T02:00:30;10.07;;;8.67;;
7919;SDS011;18778;47.610;9.776;2023-09-07T02:02:58;9.63;;;8.63;;
7919;SDS011;18778;47.610;9.776;2023-09-07T02:05:24;10.03;;;8.50;;
7919;SDS011;18778;47.610;9.776;2023-09-07T02:07:50;9.80;;;8.90;;
7919;SDS011;18778;47.610;9.776;2023-09-07T02:10:16;10.83;;;9.10;;
7919;SDS011;18778;47.610;9.776;2023-09-07T02:12:42;9.50;;;8.50;;
7919;SDS011;18778;47.610;9.776;2023-09-07T02:15:10;11.80;;;8.87;;
7919;SDS011;18778;47.610;9.776;2023-09-07T02:17:36;10.00;;;9.00;;
7919;SDS011;18778;47.610;9.776;2023-09-07T02:20:02;10.07;;;8.97;;
7919;SDS011;18778;47.610;9.776;2023-09-07T02:22:33;10.00;;;9.00;;
7919;SDS011;18778;47.610;9.776;2023-09-07T02:24:59;9.57;;;8.57;;
7919;SDS011;18778;47.610;9.776;2023-09-07T02:27:25;10.83;;;8.67;;
7919;SDS011;18778;47.610;9.776;2023-09-07T02:29:50;9.33;;;8.43;;
7919;SDS011;18778;47.610;9.776;2023-09-07T02:32:16;10.00;;;9.00;;
7919;SDS011;18778;47.610;9.776;2023-09-07T02:34:41;10.73;;;8.87;;
7919;SDS011;18778;47.610;9.776;2023-09-07T02:37:08;9.97;;;8.97;;
7919;SDS011;18778;47.610;9.776;2023-09-07T02:39:34;11.07;;;9.43;;
7919;SDS011;18778;47.610;9.776;2023-09-07T02:42:00;11.27;;;9.47;;
7919;SDS011;18778;47.610;9.776;2023-09-07T02:44:26;13.50;;;10.07;;
7919;SDS011;18778;47.610;9.776;2023-09-07T02:46:51;10.33;;;9.33;;
7919;SDS011;18778;47.610;9.776;2023-09-07T02:49:17;10.57;;;9.57;;
7919;SDS011;18778;47.610;9.776;2023-09-07T02:51:42;10.37;;;9.37;;
7919;SDS011;18778;47.610;9.776;2023-09-07T02:54:09;10.87;;;9.77;;
7919;SDS011;18778;47.610;9.776;2023-09-07T02:56:35;12.03;;;10.70;;
7919;SDS011;18778;47.610;9.776;2023-09-07T02:59:01;12.10;;;10.23;;
7919;SDS011;18778;47.610;9.776;2023-09-07T03:01:28;11.53;;;10.37;;
7919;SDS011;18778;47.610;9.776;2023-09-07T03:03:53;12.73;;;11.13;;
7919;SDS011;18778;47.610;9.776;2023-09-07T03:06:19;11.47;;;9.83;;
7919;SDS011;18778;47.610;9.776;2023-09-07T03:08:45;11.30;;;10.10;;
7919;SDS011;18778;47.610;9.776;2023-09-07T03:11:11;13.93;;;10.33;;
7919;SDS011;18778;47.610;9.776;2023-09-07T03:13:37;12.37;;;11.07;;
7919;SDS011;18778;47.610;9.776;2023-09-07T03:16:03;10.67;;;9.67;;
7919;SDS011;18778;47.610;9.776;2023-09-07T03:18:29;11.23;;;10.10;;
7919;SDS011;18778;47.610;9.776;2023-09-07T03:20:56;11.07;;;9.80;;
7919;SDS011;18778;47.610;9.776;2023-09-07T03:23:24;11.77;;;10.63;;
7919;SDS011;18778;47.610;9.776;2023-09-07T03:25:50;12.13;;;10.53;;
7919;SDS011;18778;47.610;9.776;2023-09-07T03:28:15;12.27;;;10.97;;
7919;SDS011;18778;47.610;9.776;2023-09-07T03:30:41;11.90;;;10.70;;
7919;SDS011;18778;47.610;9.776;2023-09-07T03:33:06;13.13;;;10.60;;
7919;SDS011;18778;47.610;9.776;2023-09-07T03:35:33;11.50;;;10.30;;
7919;SDS011;18778;47.610;9.776;2023-09-07T03:38:00;13.13;;;11.43;;
7919;SDS011;18778;47.610;9.776;2023-09-07T03:40:26;15.43;;;10.87;;
7919;SDS011;18778;47.610;9.776;2023-09-07T03:42:51;12.13;;;10.67;;
7919;SDS011;18778;47.610;9.776;2023-09-07T03:45:17;11.50;;;10.17;;
7919;SDS011;18778;47.610;9.776;2023-09-07T03:47:43;12.20;;;10.90;;
7919;SDS011;18778;47.610;9.776;2023-09-07T03:50:09;12.07;;;10.83;;
7919;SDS011;18778;47.610;9.776;2023-09-07T03:52:35;11.70;;;10.47;;
7919;SDS011;18778;47.610;9.776;2023-09-07T03:55:01;11.90;;;10.43;;
7919;SDS011;18778;47.610;9.776;2023-09-07T03:57:27;11.57;;;10.37;;
7919;SDS011;18778;47.610;9.776;2023-09-07T03:59:53;11.70;;;10.30;;
7919;SDS011;18778;47.610;9.776;2023-09-07T04:02:22;11.70;;;10.60;;
7919;SDS011;18778;47.610;9.776;2023-09-07T04:04:48;12.20;;;10.90;;
7919;SDS011;18778;47.610;9.776;2023-09-07T04:07:15;12.13;;;10.97;;
7919;SDS011;18778;47.610;9.776;2023-09-07T04:09:41;11.60;;;10.43;;
7919;SDS011;18778;47.610;9.776;2023-09-07T04:12:08;12.73;;;10.47;;
7919;SDS011;18778;47.610;9.776;2023-09-07T04:14:34;11.60;;;10.40;;
7919;SDS011;18778;47.610;9.776;2023-09-07T04:17:00;11.23;;;10.03;;
7919;SDS011;18778;47.610;9.776;2023-09-07T04:19:26;12.10;;;10.90;;
7919;SDS011;18778;47.610;9.776;2023-09-07T04:21:52;11.87;;;10.67;;
7919;SDS011;18778;47.610;9.776;2023-09-07T04:24:17;12.53;;;10.67;;
7919;SDS011;18778;47.610;9.776;2023-09-07T04:26:43;14.33;;;11.43;;
7919;SDS011;18778;47.610;9.776;2023-09-07T04:29:09;12.07;;;10.63;;
7919;SDS011;18778;47.610;9.776;2023-09-07T04:31:36;11.40;;;10.20;;
7919;SDS011;18778;47.610;9.776;2023-09-07T04:34:02;12.70;;;10.27;;
7919;SDS011;18778;47.610;9.776;2023-09-07T04:36:28;11.97;;;10.77;;
7919;SDS011;18778;47.610;9.776;2023-09-07T04:38:54;11.80;;;10.70;;
7919;SDS011;18778;47.610;9.776;2023-09-07T04:41:19;13.57;;;10.07;;
7919;SDS011;18778;47.610;9.776;2023-09-07T04:43:45;13.80;;;11.47;;
7919;SDS011;18778;47.610;9.776;2023-09-07T04:46:11;13.80;;;10.30;;
7919;SDS011;18778;47.610;9.776;2023-09-07T04:48:38;11.60;;;10.50;;
7919;SDS011;18778;47.610;9.776;2023-09-07T04:51:06;11.47;;;10.37;;
7919;SDS011;18778;47.610;9.776;2023-09-07T04:53:33;13.80;;;10.67;;
7919;SDS011;18778;47.610;9.776;2023-09-07T04:56:01;11.67;;;10.47;;
7919;SDS011;18778;47.610;9.776;2023-09-07T04:58:27;13.47;;;10.73;;
7919;SDS011;18778;47.610;9.776;2023-09-07T05:00:53;12.47;;;11.27;;
7919;SDS011;18778;47.610;9.776;2023-09-07T05:03:19;13.90;;;10.90;;
7919;SDS011;18778;47.610;9.776;2023-09-07T05:05:50;11.43;;;10.23;;
7919;SDS011;18778;47.610;9.776;2023-09-07T05:08:16;11.73;;;10.53;;
7919;SDS011;18778;47.610;9.776;2023-09-07T05:10:42;12.93;;;10.43;;
7919;SDS011;18778;47.610;9.776;2023-09-07T05:13:07;12.10;;;10.83;;
7919;SDS011;18778;47.610;9.776;2023-09-07T05:15:33;11.90;;;10.63;;
7919;SDS011;18778;47.610;9.776;2023-09-07T05:17:59;12.47;;;11.27;;
7919;SDS011;18778;47.610;9.776;2023-09-07T05:20:24;11.90;;;10.73;;
7919;SDS011;18778;47.610;9.776;2023-09-07T05:22:51;12.30;;;11.03;;
7919;SDS011;18778;47.610;9.776;2023-09-07T05:25:18;12.20;;;11.00;;
7919;SDS011;18778;47.610;9.776;2023-09-07T05:27:45;12.23;;;11.00;;
7919;SDS011;18778;47.610;9.776;2023-09-07T05:30:11;11.53;;;10.43;;
7919;SDS011;18778;47.610;9.776;2023-09-07T05:32:36;16.67;;;11.00;;
7919;SDS011;18778;47.610;9.776;2023-09-07T05:35:02;12.17;;;10.97;;
7919;SDS011;18778;47.610;9.776;2023-09-07T05:37:29;11.70;;;10.60;;
7919;SDS011;18778;47.610;9.776;2023-09-07T05:39:55;11.80;;;10.60;;
7919;SDS011;18778;47.610;9.776;2023-09-07T05:42:21;14.03;;;10.93;;
7919;SDS011;18778;47.610;9.776;2023-09-07T05:44:46;15.23;;;10.90;;
7919;SDS011;18778;47.610;9.776;2023-09-07T05:47:12;12.03;;;10.93;;
7919;SDS011;18778;47.610;9.776;2023-09-07T05:49:37;12.83;;;11.57;;
7919;SDS011;18778;47.610;9.776;2023-09-07T05:52:03;13.23;;;11.93;;
7919;SDS011;18778;47.610;9.776;2023-09-07T05:54:29;12.33;;;11.00;;
7919;SDS011;18778;47.610;9.776;2023-09-07T05:56:54;11.97;;;10.00;;
7919;SDS011;18778;47.610;9.776;2023-09-07T05:59:20;13.03;;;10.73;;
7919;SDS011;18778;47.610;9.776;2023-09-07T06:01:45;11.30;;;10.20;;
7919;SDS011;18778;47.610;9.776;2023-09-07T06:04:11;10.83;;;9.73;;
7919;SDS011;18778;47.610;9.776;2023-09-07T06:06:37;11.87;;;10.53;;
7919;SDS011;18778;47.610;9.776;2023-09-07T06:09:03;10.73;;;9.73;;
7919;SDS011;18778;47.610;9.776;2023-09-07T06:11:28;10.50;;;9.40;;
7919;SDS011;18778;47.610;9.776;2023-09-07T06:13:55;11.07;;;9.73;;
7919;SDS011;18778;47.610;9.776;2023-09-07T06:16:20;10.70;;;9.57;;
7919;SDS011;18778;47.610;9.776;2023-09-07T06:18:46;12.87;;;9.50;;
7919;SDS011;18778;47.610;9.776;2023-09-07T06:21:11;10.80;;;9.00;;
7919;SDS011;18778;47.610;9.776;2023-09-07T06:23:37;12.43;;;10.07;;
7919;SDS011;18778;47.610;9.776;2023-09-07T06:26:02;10.30;;;9.33;;
7919;SDS011;18778;47.610;9.776;2023-09-07T06:28:28;14.67;;;9.83;;
7919;SDS011;18778;47.610;9.776;2023-09-07T06:30:54;11.60;;;10.50;;
7919;SDS011;18778;47.610;9.776;2023-09-07T06:33:19;11.13;;;9.60;;
7919;SDS011;18778;47.610;9.776;2023-09-07T06:35:45;10.47;;;9.50;;
7919;SDS011;18778;47.610;9.776;2023-09-07T06:38:10;11.80;;;10.60;;
7919;SDS011;18778;47.610;9.776;2023-09-07T06:40:36;12.30;;;9.93;;
7919;SDS011;18778;47.610;9.776;2023-09-07T06:43:01;10.77;;;9.33;;
7919;SDS011;18778;47.610;9.776;2023-09-07T06:45:33;10.63;;;9.53;;
7919;SDS011;18778;47.610;9.776;2023-09-07T06:47:59;12.60;;;9.37;;
7919;SDS011;18778;47.610;9.776;2023-09-07T06:50:25;11.20;;;9.10;;
7919;SDS011;18778;47.610;9.776;2023-09-07T06:52:50;10.30;;;9.30;;
7919;SDS011;18778;47.610;9.776;2023-09-07T06:55:16;11.43;;;10.43;;
7919;SDS011;18778;47.610;9.776;2023-09-07T06:57:41;10.83;;;9.27;;
7919;SDS011;18778;47.610;9.776;2023-09-07T07:00:07;12.37;;;10.17;;
7919;SDS011;18778;47.610;9.776;2023-09-07T07:02:33;11.97;;;9.97;;
7919;SDS011;18778;47.610;9.776;2023-09-07T07:04:59;11.73;;;10.53;;
7919;SDS011;18778;47.610;9.776;2023-09-07T07:07:25;10.80;;;9.80;;
7919;SDS011;18778;47.610;9.776;2023-09-07T07:09:50;10.67;;;9.67;;
7919;SDS011;18778;47.610;9.776;2023-09-07T07:12:17;11.57;;;9.80;;
7919;SDS011;18778;47.610;9.776;2023-09-07T07:14:43;10.40;;;9.30;;
7919;SDS011;18778;47.610;9.776;2023-09-07T07:17:09;10.13;;;9.23;;
7919;SDS011;18778;47.610;9.776;2023-09-07T07:19:35;11.20;;;9.97;;
7919;SDS011;18778;47.610;9.776;2023-09-07T07:22:00;13.17;;;9.60;;
7919;SDS011;18778;47.610;9.776;2023-09-07T07:24:26;11.70;;;10.60;;
7919;SDS011;18778;47.610;9.776;2023-09-07T07:26:51;13.50;;;9.80;;
7919;SDS011;18778;47.610;9.776;2023-09-07T07:29:17;10.07;;;9.07;;
7919;SDS011;18778;47.610;9.776;2023-09-07T07:31:42;11.03;;;9.47;;
7919;SDS011;18778;47.610;9.776;2023-09-07T07:34:08;9.93;;;9.03;;
7919;SDS011;18778;47.610;9.776;2023-09-07T07:36:34;10.77;;;9.00;;
7919;SDS011;18778;47.610;9.776;2023-09-07T07:39:00;10.40;;;8.97;;
7919;SDS011;18778;47.610;9.776;2023-09-07T07:41:28;10.13;;;8.07;;
7919;SDS011;18778;47.610;9.776;2023-09-07T07:43:54;9.60;;;8.70;;
7919;SDS011;18778;47.610;9.776;2023-09-07T07:46:19;9.77;;;8.87;;
7919;SDS011;18778;47.610;9.776;2023-09-07T07:48:45;9.63;;;8.63;;
7919;SDS011;18778;47.610;9.776;2023-09-07T07:51:10;10.13;;;8.50;;
7919;SDS011;18778;47.610;9.776;2023-09-07T07:53:36;8.97;;;8.17;;
7919;SDS011;18778;47.610;9.776;2023-09-07T07:56:02;9.37;;;8.47;;
7919;SDS011;18778;47.610;9.776;2023-09-07T07:58:28;10.60;;;7.77;;
7919;SDS011;18778;47.610;9.776;2023-09-07T08:00:53;8.27;;;7.47;;
7919;SDS011;18778;47.610;9.776;2023-09-07T08:03:22;8.00;;;7.30;;
7919;SDS011;18778;47.610;9.776;2023-09-07T08:05:48;8.97;;;7.67;;
7919;SDS011;18778;47.610;9.776;2023-09-07T08:08:14;11.33;;;7.90;;
7919;SDS011;18778;47.610;9.776;2023-09-07T08:10:39;8.93;;;8.10;;
7919;SDS011;18778;47.610;9.776;2023-09-07T08:13:06;10.63;;;7.73;;
7919;SDS011;18778;47.610;9.776;2023-09-07T08:15:33;8.03;;;7.23;;
7919;SDS011;18778;47.610;9.776;2023-09-07T08:17:59;12.17;;;9.80;;
7919;SDS011;18778;47.610;9.776;2023-09-07T08:20:25;13.57;;;11.23;;
7919;SDS011;18778;47.610;9.776;2023-09-07T08:22:51;8.70;;;7.90;;
7919;SDS011;18778;47.610;9.776;2023-09-07T08:25:17;15.73;;;11.70;;
7919;SDS011;18778;47.610;9.776;2023-09-07T08:27:43;14.87;;;11.67;;
7919;SDS011;18778;47.610;9.776;2023-09-07T08:30:11;14.13;;;12.40;;
7919;SDS011;18778;47.610;9.776;2023-09-07T08:32:42;12.80;;;11.50;;
7919;SDS011;18778;47.610;9.776;2023-09-07T08:35:10;10.60;;;9.60;;
7919;SDS011;18778;47.610;9.776;2023-09-07T08:37:41;10.97;;;9.87;;
7919;SDS011;18778;47.610;9.776;2023-09-07T08:40:07;11.97;;;10.80;;
7919;SDS011;18778;47.610;9.776;2023-09-07T08:42:36;10.57;;;9.57;;
7919;SDS011;18778;47.610;9.776;2023-09-07T08:45:03;16.37;;;12.13;;
7919;SDS011;18778;47.610;9.776;2023-09-07T08:47:31;14.73;;;12.90;;
7919;SDS011;18778;47.610;9.776;2023-09-07T08:50:02;13.53;;;11.57;;
7919;SDS011;18778;47.610;9.776;2023-09-07T08:52:29;16.43;;;12.97;;
7919;SDS011;18778;47.610;9.776;2023-09-07T08:54:55;15.17;;;11.67;;
7919;SDS011;18778;47.610;9.776;2023-09-07T08:57:23;10.83;;;9.73;;
7919;SDS011;18778;47.610;9.776;2023-09-07T08:59:52;8.30;;;7.50;;
7919;SDS011;18778;47.610;9.776;2023-09-07T09:02:17;8.60;;;7.70;;
7919;SDS011;18778;47.610;9.776;2023-09-07T09:04:43;9.87;;;7.43;;
7919;SDS011;18778;47.610;9.776;2023-09-07T09:07:08;9.00;;;7.03;;
7919;SDS011;18778;47.610;9.776;2023-09-07T09:09:34;8.20;;;7.40;;
7919;SDS011;18778;47.610;9.776;2023-09-07T09:12:09;8.30;;;7.33;;
7919;SDS011;18778;47.610;9.776;2023-09-07T09:14:36;7.13;;;6.53;;
7919;SDS011;18778;47.610;9.776;2023-09-07T09:17:02;9.57;;;6.93;;
7919;SDS011;18778;47.610;9.776;2023-09-07T09:19:34;7.30;;;6.40;;
7919;SDS011;18778;47.610;9.776;2023-09-07T09:22:00;6.93;;;6.30;;
7919;SDS011;18778;47.610;9.776;2023-09-07T09:24:27;6.50;;;5.80;;
7919;SDS011;18778;47.610;9.776;2023-09-07T09:26:57;6.73;;;6.13;;
7919;SDS011;18778;47.610;9.776;2023-09-07T09:29:22;7.20;;;6.50;;
7919;SDS011;18778;47.610;9.776;2023-09-07T09:31:48;6.90;;;6.00;;
7919;SDS011;18778;47.610;9.776;2023-09-07T09:34:14;8.53;;;7.67;;
7919;SDS011;18778;47.610;9.776;2023-09-07T09:36:41;8.80;;;7.60;;
7919;SDS011;18778;47.610;9.776;2023-09-07T09:39:08;6.80;;;6.17;;
7919;SDS011;18778;47.610;9.776;2023-09-07T09:41:34;7.30;;;6.63;;
7919;SDS011;18778;47.610;9.776;2023-09-07T09:44:02;6.13;;;5.10;;
7919;SDS011;18778;47.610;9.776;2023-09-07T09:46:28;5.57;;;5.07;;
7919;SDS011;18778;47.610;9.776;2023-09-07T09:48:56;6.20;;;5.43;;
7919;SDS011;18778;47.610;9.776;2023-09-07T09:51:23;5.27;;;4.80;;
7919;SDS011;18778;47.610;9.776;2023-09-07T09:53:49;5.90;;;5.30;;
7919;SDS011;18778;47.610;9.776;2023-09-07T09:56:16;6.00;;;4.60;;
7919;SDS011;18778;47.610;9.776;2023-09-07T09:58:42;5.47;;;4.97;;
7919;SDS011;18778;47.610;9.776;2023-09-07T10:01:08;5.50;;;5.00;;
7919;SDS011;18778;47.610;9.776;2023-09-07T10:03:40;5.53;;;4.90;;
7919;SDS011;18778;47.610;9.776;2023-09-07T10:06:11;7.93;;;5.60;;
7919;SDS011;18778;47.610;9.776;2023-09-07T10:09:02;5.03;;;4.73;;
7919;SDS011;18778;47.610;9.776;2023-09-07T10:11:32;7.77;;;4.67;;
7919;SDS011;18778;47.610;9.776;2023-09-07T10:13:59;5.33;;;4.80;;
7919;SDS011;18778;47.610;9.776;2023-09-07T10:16:28;7.20;;;5.40;;
7919;SDS011;18778;47.610;9.776;2023-09-07T10:18:54;5.67;;;4.83;;
7919;SDS011;18778;47.610;9.776;2023-09-07T10:21:20;5.33;;;4.83;;
7919;SDS011;18778;47.610;9.776;2023-09-07T10:23:50;5.40;;;4.90;;
7919;SDS011;18778;47.610;9.776;2023-09-07T10:26:18;7.23;;;5.23;;
7919;SDS011;18778;47.610;9.776;2023-09-07T10:28:46;5.37;;;4.97;;
7919;SDS011;18778;47.610;9.776;2023-09-07T10:31:19;5.10;;;4.70;;
7919;SDS011;18778;47.610;9.776;2023-09-07T10:33:49;5.30;;;4.80;;
7919;SDS011;18778;47.610;9.776;2023-09-07T10:36:21;4.80;;;4.40;;
7919;SDS011;18778;47.610;9.776;2023-09-07T10:38:48;4.53;;;4.23;;
7919;SDS011;18778;47.610;9.776;2023-09-07T10:41:17;5.33;;;4.73;;
7919;SDS011;18778;47.610;9.776;2023-09-07T10:43:53;5.60;;;4.50;;
7919;SDS011;18778;47.610;9.776;2023-09-07T10:46:21;4.77;;;4.37;;
7919;SDS011;18778;47.610;9.776;2023-09-07T10:48:51;5.23;;;4.53;;
7919;SDS011;18778;47.610;9.776;2023-09-07T10:51:20;5.10;;;4.60;;
7919;SDS011;18778;47.610;9.776;2023-09-07T10:53:46;5.50;;;5.00;;
7919;SDS011;18778;47.610;9.776;2023-09-07T10:56:12;5.17;;;4.70;;
7919;SDS011;18778;47.610;9.776;2023-09-07T10:58:38;5.87;;;4.50;;
7919;SDS011;18778;47.610;9.776;2023-09-07T11:01:06;5.30;;;4.80;;
7919;SDS011;18778;47.610;9.776;2023-09-07T11:03:32;4.97;;;4.57;;
7919;SDS011;18778;47.610;9.776;2023-09-07T11:08:42;6.60;;;4.50;;
7919;SDS011;18778;47.610;9.776;2023-09-07T11:11:08;5.53;;;4.57;;
7919;SDS011;18778;47.610;9.776;2023-09-07T11:13:34;5.07;;;4.57;;
7919;SDS011;18778;47.610;9.776;2023-09-07T11:16:00;5.03;;;4.53;;
7919;SDS011;18778;47.610;9.776;2023-09-07T11:18:27;5.30;;;4.90;;
7919;SDS011;18778;47.610;9.776;2023-09-07T11:20:53;4.97;;;4.60;;
7919;SDS011;18778;47.610;9.776;2023-09-07T11:23:19;5.20;;;4.80;;
7919;SDS011;18778;47.610;9.776;2023-09-07T11:25:49;6.27;;;5.00;;
7919;SDS011;18778;47.610;9.776;2023-09-07T11:28:15;8.43;;;5.40;;
7919;SDS011;18778;47.610;9.776;2023-09-07T11:30:49;5.43;;;4.93;;
7919;SDS011;18778;47.610;9.776;2023-09-07T11:33:19;6.57;;;5.30;;
7919;SDS011;18778;47.610;9.776;2023-09-07T11:35:46;5.40;;;4.90;;
7919;SDS011;18778;47.610;9.776;2023-09-07T11:38:13;5.35;;;4.90;;
7919;SDS011;18778;47.610;9.776;2023-09-07T11:40:41;5.40;;;5.00;;
7919;SDS011;18778;47.610;9.776;2023-09-07T11:43:12;5.95;;;5.10;;
7919;SDS011;18778;47.610;9.776;2023-09-07T11:45:44;6.63;;;5.00;;
7919;SDS011;18778;47.610;9.776;2023-09-07T11:48:10;5.30;;;4.90;;
7919;SDS011;18778;47.610;9.776;2023-09-07T11:50:36;5.60;;;5.18;;
7919;SDS011;18778;47.610;9.776;2023-09-07T11:53:07;5.32;;;4.93;;
7919;SDS011;18778;47.610;9.776;2023-09-07T11:55:33;5.70;;;5.25;;
7919;SDS011;18778;47.610;9.776;2023-09-07T11:58:00;5.28;;;4.78;;
7919;SDS011;18778;47.610;9.776;2023-09-07T12:00:26;5.60;;;5.10;;
7919;SDS011;18778;47.610;9.776;2023-09-07T12:02:51;6.28;;;5.05;;
7919;SDS011;18778;47.610;9.776;2023-09-07T12:05:17;5.22;;;4.82;;
7919;SDS011;18778;47.610;9.776;2023-09-07T12:07:44;5.75;;;5.30;;
7919;SDS011;18778;47.610;9.776;2023-09-07T12:10:10;5.60;;;5.10;;
7919;SDS011;18778;47.610;9.776;2023-09-07T12:12:37;5.20;;;4.80;;
7919;SDS011;18778;47.610;9.776;2023-09-07T12:15:03;6.38;;;5.05;;
7919;SDS011;18778;47.610;9.776;2023-09-07T12:17:30;5.97;;;5.35;;
7919;SDS011;18778;47.610;9.776;2023-09-07T12:19:56;5.32;;;4.82;;
7919;SDS011;18778;47.610;9.776;2023-09-07T12:22:21;5.63;;;5.22;;
7919;SDS011;18778;47.610;9.776;2023-09-07T12:24:47;7.78;;;5.57;;
7919;SDS011;18778;47.610;9.776;2023-09-07T12:27:13;5.47;;;5.07;;
7919;SDS011;18778;47.610;9.776;2023-09-07T12:29:38;5.82;;;5.20;;
7919;SDS011;18778;47.610;9.776;2023-09-07T12:32:04;6.15;;;5.18;;
7919;SDS011;18778;47.610;9.776;2023-09-07T12:34:30;5.50;;;5.00;;
7919;SDS011;18778;47.610;9.776;2023-09-07T12:36:55;6.43;;;5.45;;
7919;SDS011;18778;47.610;9.776;2023-09-07T12:39:21;6.22;;;4.80;;
7919;SDS011;18778;47.610;9.776;2023-09-07T12:41:46;6.22;;;5.10;;
7919;SDS011;18778;47.610;9.776;2023-09-07T12:44:12;5.13;;;4.70;;
7919;SDS011;18778;47.610;9.776;2023-09-07T12:46:38;5.93;;;4.45;;
7919;SDS011;18778;47.610;9.776;2023-09-07T12:49:03;5.10;;;4.60;;
7919;SDS011;18778;47.610;9.776;2023-09-07T12:51:29;5.10;;;4.65;;
7919;SDS011;18778;47.610;9.776;2023-09-07T12:53:55;5.35;;;4.95;;
7919;SDS011;18778;47.610;9.776;2023-09-07T12:56:21;5.35;;;4.78;;
7919;SDS011;18778;47.610;9.776;2023-09-07T12:58:46;5.40;;;4.55;;
7919;SDS011;18778;47.610;9.776;2023-09-07T13:01:12;5.25;;;4.85;;
7919;SDS011;18778;47.610;9.776;2023-09-07T13:03:40;6.20;;;4.88;;
7919;SDS011;18778;47.610;9.776;2023-09-07T13:06:06;5.00;;;4.70;;
7919;SDS011;18778;47.610;9.776;2023-09-07T13:08:31;5.10;;;4.65;;
7919;SDS011;18778;47.610;9.776;2023-09-07T13:10:58;5.38;;;4.43;;
7919;SDS011;18778;47.610;9.776;2023-09-07T13:13:23;5.80;;;5.13;;
7919;SDS011;18778;47.610;9.776;2023-09-07T13:15:57;6.72;;;6.13;;
7919;SDS011;18778;47.610;9.776;2023-09-07T13:18:23;6.63;;;5.50;;
7919;SDS011;18778;47.610;9.776;2023-09-07T13:20:49;7.85;;;5.82;;
7919;SDS011;18778;47.610;9.776;2023-09-07T13:23:16;6.28;;;5.60;;
7919;SDS011;18778;47.610;9.776;2023-09-07T13:25:42;6.43;;;5.90;;
7919;SDS011;18778;47.610;9.776;2023-09-07T13:28:08;7.90;;;5.90;;
7919;SDS011;18778;47.610;9.776;2023-09-07T13:30:34;7.85;;;5.88;;
7919;SDS011;18778;47.610;9.776;2023-09-07T13:33:00;7.18;;;6.20;;
7919;SDS011;18778;47.610;9.776;2023-09-07T13:35:25;6.70;;;6.00;;
7919;SDS011;18778;47.610;9.776;2023-09-07T13:37:51;8.65;;;5.95;;
7919;SDS011;18778;47.610;9.776;2023-09-07T13:40:17;7.22;;;6.20;;
7919;SDS011;18778;47.610;9.776;2023-09-07T13:42:44;8.48;;;6.40;;
7919;SDS011;18778;47.610;9.776;2023-09-07T13:45:10;8.57;;;6.25;;
7919;SDS011;18778;47.610;9.776;2023-09-07T13:47:36;6.68;;;5.20;;
7919;SDS011;18778;47.610;9.776;2023-09-07T13:50:03;5.30;;;4.85;;
7919;SDS011;18778;47.610;9.776;2023-09-07T13:52:29;6.45;;;5.50;;
7919;SDS011;18778;47.610;9.776;2023-09-07T13:54:55;5.93;;;5.40;;
7919;SDS011;18778;47.610;9.776;2023-09-07T13:57:20;6.93;;;5.40;;
7919;SDS011;18778;47.610;9.776;2023-09-07T13:59:46;5.88;;;5.30;;
7919;SDS011;18778;47.610;9.776;2023-09-07T14:02:12;8.88;;;5.25;;
7919;SDS011;18778;47.610;9.776;2023-09-07T14:04:37;7.20;;;5.55;;
7919;SDS011;18778;47.610;9.776;2023-09-07T14:07:03;5.70;;;5.20;;
7919;SDS011;18778;47.610;9.776;2023-09-07T14:09:29;7.28;;;5.30;;
7919;SDS011;18778;47.610;9.776;2023-09-07T14:11:54;5.50;;;5.00;;
7919;SDS011;18778;47.610;9.776;2023-09-07T14:14:20;8.07;;;5.57;;
7919;SDS011;18778;47.610;9.776;2023-09-07T14:16:46;7.63;;;5.75;;
7919;SDS011;18778;47.610;9.776;2023-09-07T14:19:12;6.38;;;5.80;;
7919;SDS011;18778;47.610;9.776;2023-09-07T14:21:37;6.53;;;5.22;;
7919;SDS011;18778;47.610;9.776;2023-09-07T14:24:03;7.32;;;5.47;;
7919;SDS011;18778;47.610;9.776;2023-09-07T14:26:29;6.20;;;5.60;;
7919;SDS011;18778;47.610;9.776;2023-09-07T14:28:55;6.95;;;5.78;;
7919;SDS011;18778;47.610;9.776;2023-09-07T14:31:20;6.57;;;5.53;;
7919;SDS011;18778;47.610;9.776;2023-09-07T14:33:46;7.38;;;6.03;;
7919;SDS011;18778;47.610;9.776;2023-09-07T14:36:13;9.25;;;6.40;;
7919;SDS011;18778;47.610;9.776;2023-09-07T14:38:41;7.63;;;6.30;;
7919;SDS011;18778;47.610;9.776;2023-09-07T14:41:09;6.57;;;5.80;;
7919;SDS011;18778;47.610;9.776;2023-09-07T14:43:37;7.38;;;6.10;;
7919;SDS011;18778;47.610;9.776;2023-09-07T14:46:02;7.38;;;6.00;;
7919;SDS011;18778;47.610;9.776;2023-09-07T14:48:28;8.57;;;6.57;;